Time;durP1;ratioP1;P1;durP2;ratioP2;P2;SDS_P1;SDS_P2;PMS_P1;PMS_P2;Temp;Humidity;BMP_temperature;BMP_pressure;BME280_temperature;BME280_humidity;BME280_pressure;Samples;Min_cycle;Max_cycle;Signal;HPM_P1;HPM_P2
2022/10/24 00:02:20;;;;;;;17.20;2.95;;;;;;;13.18;100.00;96563.53;4977513;28;20081;-67
2022/10/24 00:04:46;;;;;;;12.18;3.00;;;;;;;13.18;100.00;96569.03;4981245;28;20046;-68
2022/10/24 00:07:11;;;;;;;11.88;3.05;;;;;;;13.20;100.00;96567.50;4976142;28;20038;-67
2022/10/24 00:09:36;;;;;;;11.30;2.70;;;;;;;13.25;100.00;96560.81;4981874;28;20073;-68
2022/10/24 00:12:03;;;;;;;16.73;3.03;;;;;;;13.27;100.00;96563.19;4982703;28;20046;-70
2022/10/24 00:14:29;;;;;;;8.95;2.35;;;;;;;13.30;100.00;96543.16;4973341;28;20051;-67
2022/10/24 00:16:54;;;;;;;10.63;2.75;;;;;;;13.43;100.00;96530.63;4981287;28;20042;-68
2022/10/24 00:19:20;;;;;;;16.45;3.28;;;;;;;13.68;100.00;96524.41;4976746;28;20057;-67
2022/10/24 00:21:46;;;;;;;15.40;2.47;;;;;;;13.57;100.00;96518.88;4982492;28;20045;-67
2022/10/24 00:24:12;;;;;;;10.05;2.85;;;;;;;13.56;100.00;96522.84;4980013;28;20038;-67
2022/10/24 00:26:37;;;;;;;10.63;2.50;;;;;;;13.47;100.00;96514.94;4981526;28;20046;-68
2022/10/24 00:29:04;;;;;;;9.27;2.58;;;;;;;13.41;100.00;96529.47;4979508;28;20136;-68
2022/10/24 00:31:30;;;;;;;8.90;2.47;;;;;;;13.37;100.00;96529.47;4982770;28;20081;-68
2022/10/24 00:33:56;;;;;;;10.63;2.60;;;;;;;13.42;100.00;96542.84;4983105;28;20105;-68
2022/10/24 00:36:22;;;;;;;12.75;2.80;;;;;;;13.41;100.00;96543.22;4982667;28;20555;-68
2022/10/24 00:38:49;;;;;;;12.05;2.50;;;;;;;13.32;100.00;96541.63;4979105;28;20054;-69
2022/10/24 00:41:26;;;;;;;10.82;2.60;;;;;;;13.30;100.00;96543.16;4984168;28;20038;-69
2022/10/24 00:44:22;;;;;;;10.40;2.38;;;;;;;13.22;100.00;96519.53;4986599;28;20050;-68
2022/10/24 00:47:00;;;;;;;17.08;2.88;;;;;;;13.17;100.00;96520.72;4959928;28;20413;-68
2022/10/24 00:49:36;;;;;;;12.65;2.63;;;;;;;13.18;100.00;96514.03;4955604;28;20050;-68
2022/10/24 00:52:06;;;;;;;11.10;2.95;;;;;;;13.19;100.00;96527.41;4961965;28;20097;-69
2022/10/24 00:54:33;;;;;;;11.13;2.35;;;;;;;13.20;100.00;96541.97;4972650;28;20042;-68
2022/10/24 00:57:05;;;;;;;8.38;2.10;;;;;;;13.15;100.00;96550.59;4960555;28;20472;-68
2022/10/24 00:59:33;;;;;;;9.00;2.22;;;;;;;13.10;100.00;96546.22;4961631;28;20464;-68
2022/10/24 01:01:58;;;;;;;15.20;2.53;;;;;;;13.06;100.00;96555.66;4963260;28;20042;-69
2022/10/24 01:04:24;;;;;;;10.18;2.20;;;;;;;13.05;100.00;96563.09;4962843;28;20216;-67
2022/10/24 01:07:15;;;;;;;10.68;2.40;;;;;;;13.04;100.00;96566.25;4958987;28;20163;-67
2022/10/24 01:10:07;;;;;;;14.32;3.00;;;;;;;13.02;100.00;96569.38;4982703;28;20431;-67
2022/10/24 01:12:57;;;;;;;8.57;2.65;;;;;;;13.24;100.00;96569.47;4972655;28;20556;-67
2022/10/24 01:15:38;;;;;;;;;;;;;;;13.22;100.00;96574.56;4960447;28;20046;-68
2022/10/24 01:18:26;;;;;;;6.82;2.30;;;;;;;13.04;100.00;96578.03;4961949;28;19925;-69
2022/10/24 01:21:23;;;;;;;11.18;2.60;;;;;;;12.94;100.00;96576.78;4971008;28;20039;-67
2022/10/24 01:24:17;;;;;;;12.38;2.53;;;;;;;12.80;100.00;96571.22;4971119;28;20077;-67
2022/10/24 01:27:20;;;;;;;9.75;2.63;;;;;;;12.74;100.00;96590.03;4980244;28;20125;-67
2022/10/24 01:29:58;;;;;;;10.05;2.75;;;;;;;12.67;100.00;96572.72;4961857;28;20038;-68
2022/10/24 01:32:39;;;;;;;10.68;2.83;;;;;;;12.52;100.00;96569.09;4966543;28;20110;-67
2022/10/24 01:35:13;;;;;;;15.05;2.83;;;;;;;12.47;100.00;96558.47;4984535;28;20519;-68
2022/10/24 01:37:42;;;;;;;16.45;3.45;;;;;;;12.40;100.00;96561.94;4990554;28;20042;-68
2022/10/24 01:40:15;;;;;;;12.02;2.70;;;;;;;12.33;100.00;96575.63;4982428;28;20665;-68
2022/10/24 01:42:43;;;;;;;11.95;3.10;;;;;;;12.40;100.00;96573.72;4981276;28;20096;-67
2022/10/24 01:45:14;;;;;;;16.95;3.75;;;;;;;12.25;100.00;96558.31;4976718;28;20042;-67
2022/10/24 01:47:44;;;;;;;11.32;3.80;;;;;;;12.42;100.00;96576.09;4980286;28;20046;-69
2022/10/24 01:50:13;;;;;;;12.30;3.45;;;;;;;12.27;100.00;96577.16;4975884;28;20049;-67
2022/10/24 01:52:41;;;;;;;16.00;3.83;;;;;;;12.28;100.00;96575.97;4973579;28;20047;-67
2022/10/24 01:55:07;;;;;;;11.65;3.22;;;;;;;12.33;100.00;96583.88;4971139;28;20092;-67
2022/10/24 01:57:34;;;;;;;12.18;3.13;;;;;;;12.38;100.00;96598.03;4980959;28;20356;-66
2022/10/24 02:00:00;;;;;;;9.90;3.35;;;;;;;12.37;100.00;96601.16;4964189;28;20057;-70
2022/10/24 02:02:45;;;;;;;10.73;2.15;;;;;;;12.39;100.00;96599.63;4969765;28;20054;-66
2022/10/24 02:05:15;;;;;;;11.50;2.70;;;;;;;12.41;100.00;96582.75;4970436;28;20039;-70
2022/10/24 02:07:45;;;;;;;13.52;2.92;;;;;;;12.45;100.00;96593.78;4981384;28;20127;-69
2022/10/24 02:10:28;;;;;;;9.13;2.40;;;;;;;12.37;100.00;96592.91;4977574;28;20500;-70
2022/10/24 02:13:01;;;;;;;11.02;2.63;;;;;;;12.38;100.00;96594.50;4980756;28;20055;-69
2022/10/24 02:15:31;;;;;;;7.15;2.58;;;;;;;12.34;100.00;96579.97;4978272;28;20046;-68
2022/10/24 02:17:57;;;;;;;12.60;3.47;;;;;;;12.20;100.00;96575.91;4980365;28;20108;-69
2022/10/24 02:21:13;;;;;;;10.48;3.28;;;;;;;12.08;100.00;96576.22;4976444;28;20664;-69
2022/10/24 02:23:45;;;;;;;11.18;3.03;;;;;;;12.00;100.00;96574.59;4964427;28;20049;-68
2022/10/24 02:26:31;;;;;;;13.73;3.00;;;;;;;11.80;100.00;96576.72;4985968;28;20053;-68
2022/10/24 02:29:01;;;;;;;11.35;3.47;;;;;;;11.58;100.00;96571.03;4997649;28;20108;-68
2022/10/24 02:31:33;;;;;;;7.40;3.58;;;;;;;11.43;100.00;96572.84;4992132;28;20052;-67
2022/10/24 02:34:00;;;;;;;12.70;3.70;;;;;;;11.44;100.00;96566.19;4974987;28;20047;-66
2022/10/24 02:36:28;;;;;;;15.02;3.78;;;;;;;11.40;100.00;96565.34;4979790;28;20056;-68
2022/10/24 02:38:55;;;;;;;10.20;4.28;;;;;;;11.47;100.00;96572.88;4983536;28;20073;-67
2022/10/24 02:41:27;;;;;;;11.93;3.97;;;;;;;11.62;100.00;96560.88;4974891;28;22210;-68
2022/10/24 02:43:54;;;;;;;12.98;3.72;;;;;;;11.72;100.00;96566.84;4985930;28;20053;-68
2022/10/24 02:46:21;;;;;;;11.50;4.03;;;;;;;11.77;100.00;96561.78;4997166;28;21506;-70
2022/10/24 02:48:53;;;;;;;13.98;4.57;;;;;;;11.72;100.00;96572.34;4995142;28;20057;-68
2022/10/24 02:51:21;;;;;;;11.35;4.00;;;;;;;11.60;100.00;96578.88;4976640;28;20047;-67
2022/10/24 02:53:46;;;;;;;9.32;3.65;;;;;;;11.64;100.00;96588.72;4982387;28;20046;-67
2022/10/24 02:56:12;;;;;;;9.20;3.78;;;;;;;11.77;100.00;96596.69;4977122;28;20205;-68
2022/10/24 02:58:37;;;;;;;10.15;3.85;;;;;;;11.78;100.00;96599.06;4986127;28;20077;-68
2022/10/24 03:01:03;;;;;;;14.80;4.07;;;;;;;11.82;100.00;96585.38;4982992;28;20193;-70
2022/10/24 03:03:28;;;;;;;9.23;3.92;;;;;;;11.82;100.00;96591.63;4982102;28;20050;-68
2022/10/24 03:05:54;;;;;;;13.95;3.55;;;;;;;11.91;100.00;96598.81;4961021;28;20074;-68
2022/10/24 03:08:19;;;;;;;10.38;3.33;;;;;;;11.95;100.00;96602.38;4962305;28;20043;-68
2022/10/24 03:10:45;;;;;;;11.52;3.45;;;;;;;11.97;100.00;96598.06;4980838;28;20129;-69
2022/10/24 03:13:10;;;;;;;11.65;3.65;;;;;;;11.96;100.00;96591.03;4993645;28;20043;-69
2022/10/24 03:15:35;;;;;;;15.52;4.00;;;;;;;11.98;100.00;96591.44;4993202;28;20046;-68
2022/10/24 03:18:01;;;;;;;15.10;3.75;;;;;;;12.04;100.00;96592.66;4987446;28;20140;-69
2022/10/24 03:20:26;;;;;;;10.10;3.30;;;;;;;12.16;100.00;96583.34;4968997;28;20093;-68
2022/10/24 03:22:52;;;;;;;17.27;3.42;;;;;;;12.27;100.00;96580.69;4985611;28;20038;-67
2022/10/24 03:25:17;;;;;;;11.70;3.05;;;;;;;12.03;100.00;96587.56;4972961;28;20452;-68
2022/10/24 03:27:42;;;;;;;12.60;3.20;;;;;;;11.98;100.00;96587.91;4981296;28;20056;-68
2022/10/24 03:30:08;;;;;;;11.48;3.55;;;;;;;12.03;100.00;96590.31;4978297;28;20457;-69
2022/10/24 03:32:34;;;;;;;17.52;3.35;;;;;;;11.90;100.00;96584.28;4984514;28;20093;-68
2022/10/24 03:35:00;;;;;;;10.15;3.15;;;;;;;11.80;100.00;96582.22;4983870;28;20076;-69
2022/10/24 03:37:26;;;;;;;13.57;3.00;;;;;;;11.80;100.00;96590.44;4978185;28;20140;-68
2022/10/24 03:39:51;;;;;;;14.23;3.88;;;;;;;11.82;100.00;96601.84;4982629;28;20085;-68
2022/10/24 03:42:17;;;;;;;12.18;3.40;;;;;;;11.88;100.00;96600.31;4978666;28;20041;-68
2022/10/24 03:44:42;;;;;;;12.30;3.30;;;;;;;11.95;100.00;96605.91;4976764;28;20054;-69
2022/10/24 03:47:08;;;;;;;9.48;2.97;;;;;;;11.98;100.00;96618.88;4965311;28;20034;-68
2022/10/24 03:49:33;;;;;;;13.20;3.58;;;;;;;11.99;100.00;96627.91;4984949;28;20074;-68
2022/10/24 03:51:59;;;;;;;10.43;2.90;;;;;;;12.02;100.00;96619.69;4984365;28;20046;-67
2022/10/24 03:54:24;;;;;;;17.50;3.33;;;;;;;12.24;100.00;96622.63;4955420;28;20054;-68
2022/10/24 03:56:50;;;;;;;15.10;3.03;;;;;;;12.29;100.00;96624.25;4980337;28;20053;-68
2022/10/24 03:59:15;;;;;;;11.88;2.70;;;;;;;12.27;100.00;96635.63;4977108;28;20483;-68
2022/10/24 04:01:41;;;;;;;14.23;3.65;;;;;;;12.39;100.00;96634.53;4983682;28;20487;-68
2022/10/24 04:04:06;;;;;;;9.43;2.95;;;;;;;12.17;100.00;96639.03;4978919;28;20054;-69
2022/10/24 04:06:32;;;;;;;15.18;3.35;;;;;;;12.26;100.00;96650.50;4980726;28;20135;-68
2022/10/24 04:08:57;;;;;;;15.15;3.28;;;;;;;12.37;100.00;96642.34;4985138;28;20046;-68
2022/10/24 04:11:24;;;;;;;12.40;2.75;;;;;;;12.45;100.00;96630.25;4978455;28;20048;-68
2022/10/24 04:13:51;;;;;;;13.40;3.80;;;;;;;12.58;100.00;96619.75;4972329;28;20047;-68
2022/10/24 04:16:18;;;;;;;13.25;3.22;;;;;;;12.58;100.00;96626.03;4977948;28;20065;-69
2022/10/24 04:18:43;;;;;;;9.55;2.38;;;;;;;12.63;100.00;96627.66;4983065;28;20078;-68
2022/10/24 04:21:09;;;;;;;13.88;3.25;;;;;;;12.67;100.00;96627.69;4977006;28;20069;-69
2022/10/24 04:23:39;;;;;;;10.63;3.05;;;;;;;12.63;100.00;96636.69;4982615;28;20076;-69
2022/10/24 04:26:06;;;;;;;10.00;3.25;;;;;;;12.54;100.00;96629.94;4969262;28;20472;-69
2022/10/24 04:28:31;;;;;;;10.25;3.90;;;;;;;12.35;100.00;96622.72;4984354;28;20562;-67
2022/10/24 04:30:57;;;;;;;10.90;3.90;;;;;;;12.41;100.00;96629.47;4975026;28;20042;-67
2022/10/24 04:33:23;;;;;;;13.85;4.43;;;;;;;12.46;100.00;96618.13;4971408;28;20065;-70
2022/10/24 04:35:49;;;;;;;10.90;3.75;;;;;;;12.50;100.00;96621.69;4972710;28;20057;-68
2022/10/24 04:38:15;;;;;;;11.73;3.65;;;;;;;12.60;100.00;96615.47;4978188;28;20076;-67
2022/10/24 04:40:45;;;;;;;10.43;3.90;;;;;;;12.79;100.00;96625.41;4983540;28;20133;-67
2022/10/24 04:43:11;;;;;;;8.40;3.20;;;;;;;12.77;100.00;96616.75;4976841;28;20052;-68
2022/10/24 04:45:36;;;;;;;9.15;2.83;;;;;;;12.43;100.00;96597.69;4976830;28;20050;-68
2022/10/24 04:48:02;;;;;;;10.95;3.17;;;;;;;12.37;100.00;96612.13;4983480;28;20042;-69
2022/10/24 04:50:27;;;;;;;10.15;3.65;;;;;;;12.36;100.00;96603.13;4977639;28;20049;-69
2022/10/24 04:52:52;;;;;;;14.63;3.38;;;;;;;12.39;100.00;96602.38;4982599;28;20054;-68
2022/10/24 04:55:18;;;;;;;11.07;3.47;;;;;;;12.54;100.00;96633.47;4977764;28;20042;-68
2022/10/24 04:57:43;;;;;;;11.57;3.53;;;;;;;12.80;100.00;96645.41;4979934;28;20074;-67
2022/10/24 05:00:09;;;;;;;15.00;3.45;;;;;;;12.65;100.00;96644.53;4975141;28;20109;-67
2022/10/24 05:02:34;;;;;;;10.73;3.25;;;;;;;12.57;100.00;96651.16;4973337;28;20034;-66
2022/10/24 05:05:00;;;;;;;7.63;3.45;;;;;;;12.52;100.00;96646.03;4978763;28;20053;-68
2022/10/24 05:07:25;;;;;;;11.13;3.75;;;;;;;12.70;100.00;96643.41;4974563;28;20050;-68
2022/10/24 05:09:51;;;;;;;15.60;4.78;;;;;;;12.61;100.00;96632.75;4972173;28;20054;-68
2022/10/24 05:12:16;;;;;;;15.68;3.85;;;;;;;12.50;100.00;96604.41;4977044;28;20046;-68
2022/10/24 05:14:45;;;;;;;16.25;4.30;;;;;;;12.30;100.00;96596.41;4973758;28;20121;-67
2022/10/24 05:17:12;;;;;;;14.43;4.00;;;;;;;12.27;100.00;96585.41;4976698;28;20077;-68
2022/10/24 05:19:37;;;;;;;12.18;4.50;;;;;;;12.17;100.00;96571.22;4981081;28;20038;-67
2022/10/24 05:22:03;;;;;;;11.88;4.68;;;;;;;12.16;100.00;96574.34;4980411;28;20515;-69
2022/10/24 05:24:29;;;;;;;15.75;4.20;;;;;;;12.15;100.00;96568.03;4977149;28;20047;-67
2022/10/24 05:26:54;;;;;;;18.38;5.07;;;;;;;12.32;100.00;96574.06;4980581;28;20070;-67
2022/10/24 05:29:20;;;;;;;16.17;4.80;;;;;;;12.35;100.00;96563.09;4972142;28;20134;-68
2022/10/24 05:31:46;;;;;;;19.65;5.50;;;;;;;12.37;100.00;96566.25;4971549;28;20093;-67
2022/10/24 05:34:11;;;;;;;14.55;4.53;;;;;;;12.36;100.00;96555.66;4978649;28;20074;-66
2022/10/24 05:36:37;;;;;;;20.48;6.45;;;;;;;12.34;100.00;96556.03;4982495;28;20038;-67
2022/10/24 05:39:03;;;;;;;18.65;4.90;;;;;;;12.32;100.00;96563.09;4978858;28;20108;-69
2022/10/24 05:41:28;;;;;;;19.15;5.55;;;;;;;12.29;100.00;96558.34;4977071;28;20130;-66
2022/10/24 05:43:54;;;;;;;14.25;4.45;;;;;;;12.28;100.00;96554.81;4982237;28;20042;-70
2022/10/24 05:46:19;;;;;;;14.85;4.45;;;;;;;12.35;100.00;96549.38;4976159;28;20064;-69
2022/10/24 05:48:45;;;;;;;16.45;3.92;;;;;;;12.33;100.00;96537.97;4982127;28;20046;-68
2022/10/24 05:51:10;;;;;;;19.73;3.88;;;;;;;12.37;100.00;96560.78;4979844;28;20066;-69
2022/10/24 05:53:35;;;;;;;13.45;4.05;;;;;;;12.46;100.00;96563.19;4994756;28;20050;-69
2022/10/24 05:56:01;;;;;;;31.42;8.68;;;;;;;12.65;100.00;96564.84;4985689;28;20053;-69
2022/10/24 05:58:26;;;;;;;20.92;6.53;;;;;;;12.78;100.00;96579.88;4980583;28;20580;-68
2022/10/24 06:00:52;;;;;;;15.23;4.93;;;;;;;12.83;100.00;96581.44;4983384;28;20104;-67
2022/10/24 06:03:18;;;;;;;14.10;3.40;;;;;;;12.47;100.00;96574.94;4977816;28;20034;-67
2022/10/24 06:05:43;;;;;;;9.25;3.53;;;;;;;12.37;100.00;96566.25;4978872;28;20045;-68
2022/10/24 06:08:08;;;;;;;17.60;4.13;;;;;;;12.39;100.00;96563.13;4977175;28;20133;-69
2022/10/24 06:10:34;;;;;;;11.55;3.35;;;;;;;12.58;100.00;96567.56;4964720;28;20047;-69
2022/10/24 06:13:00;;;;;;;12.85;3.42;;;;;;;12.86;100.00;96550.47;4980689;28;20130;-69
2022/10/24 06:15:26;;;;;;;8.38;2.88;;;;;;;13.08;100.00;96559.59;4975000;28;20447;-67
2022/10/24 06:17:51;;;;;;;10.70;3.92;;;;;;;13.07;100.00;96565.47;4963387;28;20057;-69
2022/10/24 06:20:17;;;;;;;13.25;3.53;;;;;;;13.15;100.00;96583.59;4984572;28;20105;-71
2022/10/24 06:22:45;;;;;;;17.45;3.88;;;;;;;13.12;100.00;96592.59;4994717;28;20093;-70
2022/10/24 06:25:12;;;;;;;12.68;3.20;;;;;;;13.11;100.00;96608.31;4968420;28;20178;-69
2022/10/24 06:27:38;;;;;;;12.75;3.15;;;;;;;13.10;100.00;96619.69;4982592;28;20046;-69
2022/10/24 06:30:04;;;;;;;16.77;4.55;;;;;;;13.06;100.00;96614.19;4979298;28;20510;-69
2022/10/24 06:32:30;;;;;;;16.27;3.50;;;;;;;13.09;100.00;96612.59;4978334;28;20113;-69
2022/10/24 06:34:55;;;;;;;14.63;4.53;;;;;;;13.13;100.00;96603.22;4980194;28;20043;-66
2022/10/24 06:37:21;;;;;;;58.90;38.30;;;;;;;12.90;100.00;96586.97;4976363;28;21682;-67
2022/10/24 06:39:47;;;;;;;27.42;13.38;;;;;;;13.03;100.00;96598.44;4981683;28;20108;-67
2022/10/24 06:42:13;;;;;;;16.42;5.93;;;;;;;13.20;100.00;96611.50;4975658;28;20168;-67
2022/10/24 06:44:38;;;;;;;17.23;4.95;;;;;;;13.39;100.00;96618.66;4981183;28;20140;-67
2022/10/24 06:47:05;;;;;;;17.67;5.38;;;;;;;13.36;100.00;96627.72;4967363;28;20046;-68
2022/10/24 06:49:30;;;;;;;15.90;5.38;;;;;;;13.40;100.00;96619.47;4985840;28;20086;-67
2022/10/24 06:51:56;;;;;;;14.50;5.38;;;;;;;13.33;100.00;96619.44;4994328;28;20388;-67
2022/10/24 06:54:21;;;;;;;15.05;6.20;;;;;;;13.32;100.00;96629.63;4970007;28;20559;-67
2022/10/24 06:56:47;;;;;;;14.23;5.00;;;;;;;13.42;100.00;96633.63;4967492;28;20082;-66
2022/10/24 06:59:15;;;;;;;16.95;4.18;;;;;;;13.54;100.00;96636.03;4985844;28;20066;-67
2022/10/24 07:01:41;;;;;;;8.93;3.30;;;;;;;13.46;100.00;96639.13;4987359;28;20058;-68
2022/10/24 07:04:07;;;;;;;24.80;4.38;;;;;;;13.27;100.00;96637.44;4984084;28;20078;-68
2022/10/24 07:06:32;;;;;;;15.75;5.25;;;;;;;13.05;100.00;96622.81;4976055;28;20054;-67
2022/10/24 07:09:00;;;;;;;11.63;3.85;;;;;;;13.07;100.00;96613.00;4980696;28;20039;-67
2022/10/24 07:11:25;;;;;;;12.68;5.03;;;;;;;13.03;100.00;96616.91;4969814;28;20046;-67
2022/10/24 07:13:51;;;;;;;24.05;5.55;;;;;;;12.94;100.00;96626.28;4981227;28;20047;-66
2022/10/24 07:16:17;;;;;;;18.90;5.53;;;;;;;12.93;100.00;96623.94;4978760;28;20044;-67
2022/10/24 07:18:43;;;;;;;14.48;5.50;;;;;;;12.98;100.00;96620.78;4984069;28;20054;-67
2022/10/24 07:21:18;;;;;;;21.15;6.38;;;;;;;12.95;100.00;96613.34;4970426;28;20038;-68
2022/10/24 07:23:44;;;;;;;13.63;5.82;;;;;;;12.96;100.00;96614.91;4982289;28;20081;-68
2022/10/24 07:26:13;;;;;;;19.08;5.68;;;;;;;12.98;100.00;96618.03;4979362;28;20038;-68
2022/10/24 07:28:40;;;;;;;13.70;5.05;;;;;;;12.99;100.00;96614.91;4984852;28;20066;-68
2022/10/24 07:31:06;;;;;;;17.40;6.05;;;;;;;13.00;100.00;96618.47;4978549;28;20458;-69
2022/10/24 07:33:33;;;;;;;20.15;7.55;;;;;;;13.01;100.00;96626.31;4983928;28;20050;-68
2022/10/24 07:35:58;;;;;;;20.40;6.88;;;;;;;13.03;100.00;96627.91;4976050;28;20042;-68
2022/10/24 07:38:24;;;;;;;20.73;7.47;;;;;;;13.05;100.00;96628.31;4979454;28;20053;-68
2022/10/24 07:40:50;;;;;;;17.30;6.72;;;;;;;13.06;100.00;96635.38;4984474;28;20073;-68
2022/10/24 07:43:16;;;;;;;12.48;5.50;;;;;;;13.19;100.00;96629.16;4977680;28;20113;-67
2022/10/24 07:45:42;;;;;;;12.23;4.45;;;;;;;13.13;100.00;96622.47;4981071;28;20643;-68
2022/10/24 07:48:07;;;;;;;21.65;6.57;;;;;;;13.03;100.00;96627.91;4974094;28;20049;-68
2022/10/24 07:50:34;;;;;;;31.92;15.45;;;;;;;13.09;100.00;96637.34;4983080;28;20038;-68
2022/10/24 07:52:59;;;;;;;12.43;4.68;;;;;;;13.14;100.00;96637.78;4976873;28;20049;-68
2022/10/24 07:55:25;;;;;;;10.52;5.22;;;;;;;13.26;100.00;96638.63;4978621;28;20034;-68
2022/10/24 07:57:50;;;;;;;9.10;4.05;;;;;;;13.36;100.00;96624.97;4984327;28;20101;-69
2022/10/24 08:00:16;;;;;;;14.15;5.30;;;;;;;13.58;100.00;96625.81;4978082;28;20046;-68
2022/10/24 08:02:41;;;;;;;12.73;3.95;;;;;;;13.80;100.00;96622.34;4984302;28;20145;-68
2022/10/24 08:05:09;;;;;;;13.98;3.25;;;;;;;13.91;100.00;96614.91;4979664;28;20038;-66
2022/10/24 08:07:36;;;;;;;11.30;3.70;;;;;;;13.77;100.00;96623.91;4968411;28;20047;-68
2022/10/24 08:10:02;;;;;;;7.57;2.80;;;;;;;13.83;100.00;96627.88;4964600;28;20440;-68
2022/10/24 08:12:28;;;;;;;10.52;3.28;;;;;;;13.96;100.00;96637.31;4976624;28;20052;-68
2022/10/24 08:14:54;;;;;;;13.02;3.13;;;;;;;13.87;100.00;96631.41;4982844;28;20038;-68
2022/10/24 08:17:22;;;;;;;11.68;2.70;;;;;;;13.60;100.00;96628.19;4972784;28;20129;-68
2022/10/24 08:19:48;;;;;;;14.93;3.25;;;;;;;13.65;100.00;96630.56;4982545;28;20526;-67
2022/10/24 08:22:15;;;;;;;7.28;2.47;;;;;;;13.75;100.00;96629.78;4973493;28;20074;-67
2022/10/24 08:24:44;;;;;;;9.90;3.05;;;;;;;13.86;100.00;96624.31;4979048;28;20038;-67
2022/10/24 08:27:09;;;;;;;11.63;2.88;;;;;;;14.04;100.00;96632.59;4977306;28;20133;-68
2022/10/24 08:29:35;;;;;;;11.90;2.97;;;;;;;14.08;100.00;96632.59;4979993;28;20452;-66
2022/10/24 08:32:01;;;;;;;12.30;3.83;;;;;;;14.22;100.00;96648.38;4969626;28;20047;-68
2022/10/24 08:34:26;;;;;;;12.32;3.35;;;;;;;14.11;100.00;96657.41;4959070;28;20050;-68
2022/10/24 08:36:52;;;;;;;11.20;3.88;;;;;;;14.26;100.00;96662.94;4963993;28;20053;-68
2022/10/24 08:39:18;;;;;;;14.88;3.40;;;;;;;14.29;100.00;96676.72;4972329;28;20403;-68
2022/10/24 08:41:49;;;;;;;15.68;3.60;;;;;;;14.23;100.00;96669.25;4984250;28;20395;-68
2022/10/24 08:44:29;;;;;;;13.23;4.25;;;;;;;13.92;100.00;96668.78;4979689;28;20042;-69
2022/10/24 08:47:08;;;;;;;16.08;4.82;;;;;;;13.91;100.00;96661.69;4981686;28;20045;-69
2022/10/24 08:49:37;;;;;;;15.38;3.80;;;;;;;14.21;100.00;96677.13;4982326;28;20096;-67
2022/10/24 08:52:30;;;;;;;14.48;3.80;;;;;;;14.01;100.00;96677.47;4982143;28;20049;-69
2022/10/24 08:55:00;;;;;;;13.00;4.45;;;;;;;14.02;100.00;96687.28;4961785;28;20090;-67
2022/10/24 08:57:28;;;;;;;;;;;;;;;14.02;100.00;96705.78;4977943;28;20067;-67
2022/10/24 08:59:58;;;;;;;14.40;4.20;;;;;;;14.02;100.00;96708.53;4983377;28;19953;-66
2022/10/24 09:02:27;;;;;;;10.30;5.20;;;;;;;14.07;100.00;96705.41;4978773;28;20955;-68
2022/10/24 09:05:03;;;;;;;17.10;4.45;;;;;;;14.01;100.00;96706.94;4989700;28;20181;-69
2022/10/24 09:07:29;;;;;;;16.73;5.30;;;;;;;14.00;100.00;96728.19;4973657;28;20049;-68
2022/10/24 09:10:12;;;;;;;16.25;5.65;;;;;;;14.25;100.00;96750.31;4982469;28;20129;-68
2022/10/24 09:12:38;;;;;;;12.52;3.78;;;;;;;14.31;100.00;96743.25;4974023;28;20066;-68
2022/10/24 09:15:14;;;;;;;12.63;3.85;;;;;;;14.28;100.00;96748.75;4977022;28;20081;-69
2022/10/24 09:17:41;;;;;;;14.73;4.50;;;;;;;14.19;100.00;96754.63;4980681;28;20129;-69
2022/10/24 09:20:35;;;;;;;15.18;4.50;;;;;;;14.27;100.00;96753.44;4969226;28;20056;-69
2022/10/24 09:23:04;;;;;;;16.67;4.57;;;;;;;14.25;100.00;96752.28;4973266;28;20034;-67
2022/10/24 09:25:34;;;;;;;18.58;4.65;;;;;;;14.38;100.00;96758.22;4979786;28;20053;-68
2022/10/24 09:28:04;;;;;;;13.45;4.50;;;;;;;14.44;100.00;96749.19;4980322;28;20040;-68
2022/10/24 09:30:30;;;;;;;15.25;4.00;;;;;;;14.33;100.00;96748.34;4981468;28;20038;-68
2022/10/24 09:32:58;;;;;;;14.10;4.38;;;;;;;14.42;100.00;96748.78;4963709;28;20058;-68
2022/10/24 09:35:26;;;;;;;21.33;5.97;;;;;;;14.59;100.00;96741.75;4957701;28;20054;-68
2022/10/24 09:37:55;;;;;;;12.30;4.15;;;;;;;14.67;100.00;96731.50;4963834;28;20193;-67
2022/10/24 09:40:26;;;;;;;14.48;3.75;;;;;;;14.62;100.00;96726.38;4959040;28;20136;-67
2022/10/24 09:43:00;;;;;;;14.73;3.60;;;;;;;14.55;100.00;96724.41;4965181;28;20137;-68
2022/10/24 09:45:38;;;;;;;11.95;3.97;;;;;;;14.12;100.00;96725.09;4977091;28;20383;-67
2022/10/24 09:48:26;;;;;;;13.95;3.95;;;;;;;14.00;100.00;96721.91;4974181;28;20042;-69
2022/10/24 09:50:53;;;;;;;13.25;4.25;;;;;;;13.91;100.00;96730.53;4969949;28;20068;-67
2022/10/24 09:53:49;;;;;;;11.75;4.50;;;;;;;13.96;100.00;96749.44;4977586;28;20528;-69
2022/10/24 09:56:15;;;;;;;17.90;4.53;;;;;;;14.11;100.00;96753.00;4974934;28;20050;-67
2022/10/24 09:58:41;;;;;;;13.93;4.65;;;;;;;14.16;100.00;96769.16;4982645;28;20042;-71
2022/10/24 10:01:17;;;;;;;13.25;4.05;;;;;;;14.23;100.00;96771.94;4975651;28;20046;-69
2022/10/24 10:03:58;;;;;;;9.52;4.15;;;;;;;14.31;100.00;96765.28;4982184;28;20134;-68
2022/10/24 10:06:23;;;;;;;13.77;4.55;;;;;;;14.31;100.00;96759.78;4958618;28;20070;-69
2022/10/24 10:08:52;;;;;;;16.52;5.55;;;;;;;14.22;100.00;96756.59;4992809;28;20309;-69
2022/10/24 10:11:25;;;;;;;15.43;5.90;;;;;;;14.06;100.00;96753.38;4987214;28;20042;-71
2022/10/24 10:13:53;;;;;;;17.75;6.45;;;;;;;14.01;100.00;96762.84;4988301;28;20050;-68
2022/10/24 10:16:29;;;;;;;16.80;5.78;;;;;;;14.03;100.00;96771.50;4978812;28;20070;-67
2022/10/24 10:19:02;;;;;;;16.17;6.53;;;;;;;14.02;100.00;96775.41;4983135;28;20051;-68
2022/10/24 10:21:55;;;;;;;14.82;6.68;;;;;;;14.06;100.00;96754.19;4975417;28;20034;-68
2022/10/24 10:24:40;;;;;;;22.58;6.53;;;;;;;13.95;100.00;96740.38;4975856;28;20050;-69
2022/10/24 10:27:32;;;;;;;18.98;6.80;;;;;;;14.04;100.00;96753.00;4962164;28;20137;-68
2022/10/24 10:30:11;;;;;;;15.50;5.88;;;;;;;14.12;100.00;96773.88;4958138;28;20181;-68
2022/10/24 10:33:13;;;;;;;21.92;6.45;;;;;;;14.22;100.00;96784.13;4970298;28;20038;-68
2022/10/24 10:36:02;;;;;;;11.00;5.78;;;;;;;14.33;100.00;96800.69;4968064;28;20047;-68
2022/10/24 10:38:51;;;;;;;16.88;6.90;;;;;;;14.36;100.00;96801.91;4977415;28;20050;-67
2022/10/24 10:41:46;;;;;;;21.25;6.57;;;;;;;14.68;100.00;96802.78;4976000;28;20496;-69
2022/10/24 10:44:14;;;;;;;14.57;6.25;;;;;;;14.72;100.00;96802.78;4972943;28;20045;-68
2022/10/24 10:47:04;;;;;;;17.00;6.40;;;;;;;14.85;100.00;96803.97;4977513;28;20069;-69
2022/10/24 10:49:36;;;;;;;14.95;5.28;;;;;;;14.85;100.00;96817.78;4983689;28;20049;-68
2022/10/24 10:52:20;;;;;;;11.98;4.43;;;;;;;14.87;100.00;96831.97;4982490;28;20058;-68
2022/10/24 10:55:23;;;;;;;14.82;4.97;;;;;;;14.90;100.00;96844.19;4984958;28;20054;-68
2022/10/24 10:57:57;;;;;;;8.65;4.03;;;;;;;14.81;100.00;96835.50;4983216;28;20046;-67
2022/10/24 11:00:28;;;;;;;10.38;3.47;;;;;;;14.70;100.00;96844.53;4916767;28;1260038;-69
2022/10/24 11:03:04;;;;;;;12.75;4.07;;;;;;;14.57;100.00;96854.31;4983493;28;20030;-69
2022/10/24 11:05:39;;;;;;;9.57;2.85;;;;;;;14.47;100.00;96866.09;4980432;28;20057;-67
2022/10/24 11:08:38;;;;;;;13.65;3.90;;;;;;;14.61;100.00;96876.41;4981022;28;20046;-70
2022/10/24 11:11:11;;;;;;;13.05;4.28;;;;;;;14.65;100.00;96872.47;4979471;28;20042;-70
2022/10/24 11:13:41;;;;;;;12.07;3.35;;;;;;;14.46;100.00;96865.31;4985896;28;20129;-67
2022/10/24 11:16:13;;;;;;;16.33;4.80;;;;;;;14.44;100.00;96855.84;4980192;28;20045;-66
2022/10/24 11:18:43;;;;;;;15.57;5.00;;;;;;;14.45;100.00;96840.91;4981484;28;20125;-67
2022/10/24 11:21:11;;;;;;;15.38;5.18;;;;;;;14.51;100.00;96826.34;4962261;28;20504;-67
2022/10/24 11:23:51;;;;;;;12.73;4.30;;;;;;;14.51;100.00;96817.28;4970223;28;20104;-67
2022/10/24 11:26:33;;;;;;;9.30;3.58;;;;;;;14.71;100.00;96821.31;4974725;28;20510;-68
2022/10/24 11:29:32;;;;;;;14.27;3.00;;;;;;;14.87;100.00;96811.88;4986595;28;20045;-68
2022/10/24 11:32:17;;;;;;;26.08;4.90;;;;;;;14.91;100.00;96796.91;4982392;28;20038;-68
2022/10/24 11:34:53;;;;;;;14.05;5.40;;;;;;;14.85;100.00;96792.19;4977519;28;20060;-68